Time;durP1;ratioP1;P1;durP2;ratioP2;P2;SDS_P1;SDS_P2;PMS_P1;PMS_P2;Temp;Humidity;BMP_temperature;BMP_pressure;BME280_temperature;BME280_humidity;BME280_pressure;Samples;Min_cycle;Max_cycle;Signal;HPM_P1;HPM_P2
2022/07/12 00:01:03;;;;;;;2.63;2.10;;;20.60;1.00;;;;;;5109835;28;20421;-75
2022/07/12 00:03:28;;;;;;;5.63;2.03;;;20.60;1.00;;;;;;5110645;28;20181;-74
2022/07/12 00:05:54;;;;;;;3.10;2.07;;;20.60;1.00;;;;;;5110599;28;20175;-75
2022/07/12 00:08:20;;;;;;;2.60;1.93;;;20.60;1.00;;;;;;5109331;28;20284;-74
2022/07/12 00:10:45;;;;;;;2.50;1.80;;;20.60;1.00;;;;;;5110621;28;20171;-74
2022/07/12 00:13:11;;;;;;;4.03;2.00;;;20.60;1.00;;;;;;5109043;28;20296;-74
2022/07/12 00:15:37;;;;;;;2.70;1.80;;;20.70;1.00;;;;;;5110324;28;20219;-74
2022/07/12 00:18:03;;;;;;;2.37;1.87;;;20.60;1.00;;;;;;5109684;28;20198;-74
2022/07/12 00:20:29;;;;;;;2.07;1.50;;;20.60;1.00;;;;;;5092206;28;20189;-74
2022/07/12 00:22:54;;;;;;;2.40;1.60;;;20.60;1.00;;;;;;5089655;28;20186;-75
2022/07/12 00:25:20;;;;;;;2.53;1.60;;;20.70;1.00;;;;;;5110864;28;20186;-74
2022/07/12 00:27:46;;;;;;;2.80;1.67;;;20.70;1.00;;;;;;5086004;28;20222;-74
2022/07/12 00:30:11;;;;;;;4.60;1.90;;;20.70;1.00;;;;;;5109802;28;20170;-74
2022/07/12 00:32:37;;;;;;;2.30;1.70;;;20.70;1.00;;;;;;5108276;28;20421;-73
2022/07/12 00:35:03;;;;;;;3.00;1.53;;;20.70;1.00;;;;;;5092129;28;20621;-74
2022/07/12 00:37:29;;;;;;;2.40;1.30;;;20.70;1.00;;;;;;5108833;28;20198;-73
2022/07/12 00:39:55;;;;;;;3.47;1.40;;;20.70;1.00;;;;;;5110049;28;20401;-74
2022/07/12 00:42:20;;;;;;;2.77;1.60;;;20.70;1.00;;;;;;5106802;28;20182;-74
2022/07/12 00:44:46;;;;;;;2.10;1.50;;;20.70;1.00;;;;;;5106440;28;20409;-74
2022/07/12 00:47:37;;;;;;;3.20;1.73;;;20.70;1.00;;;;;;5109240;28;20191;-74
2022/07/12 00:50:07;;;;;;;2.33;1.63;;;20.60;1.00;;;;;;5110266;28;20190;-74
2022/07/12 00:52:33;;;;;;;2.50;1.90;;;20.50;1.00;;;;;;5106139;28;20982;-74
2022/07/12 00:54:58;;;;;;;3.27;2.10;;;20.40;1.00;;;;;;5108394;28;20427;-74
2022/07/12 00:57:24;;;;;;;3.67;2.37;;;20.40;1.00;;;;;;5109229;28;20208;-73
2022/07/12 00:59:50;;;;;;;2.60;2.00;;;20.30;1.00;;;;;;5108688;28;20652;-74
2022/07/12 01:02:16;;;;;;;3.27;2.13;;;20.30;1.00;;;;;;5108366;28;20235;-75
2022/07/12 01:04:44;;;;;;;6.80;2.33;;;20.20;1.00;;;;;;5109517;28;20547;-73
2022/07/12 01:07:10;;;;;;;2.97;2.30;;;20.10;1.00;;;;;;5108456;28;20530;-73
2022/07/12 01:09:36;;;;;;;4.03;2.27;;;;;;;;;;5109701;28;20535;-74
2022/07/12 01:12:03;;;;;;;3.10;2.23;;;19.90;1.00;;;;;;5108845;28;20450;-74
2022/07/12 01:14:29;;;;;;;3.80;2.00;;;19.90;1.00;;;;;;5109393;28;20397;-74
2022/07/12 01:16:55;;;;;;;2.70;2.03;;;19.90;1.00;;;;;;5105877;28;20533;-74
2022/07/12 01:19:21;;;;;;;2.93;2.30;;;19.80;1.00;;;;;;5106012;28;20405;-74
2022/07/12 01:21:50;;;;;;;3.60;2.73;;;19.70;1.00;;;;;;5087556;28;21028;-74
2022/07/12 01:24:17;;;;;;;4.20;2.47;;;19.60;1.00;;;;;;5070120;28;20179;-74
2022/07/12 01:26:43;;;;;;;3.67;2.10;;;19.60;1.00;;;;;;5088625;28;20454;-74
2022/07/12 01:29:09;;;;;;;3.57;2.10;;;21.10;1.00;;;;;;5101607;28;20993;-74
2022/07/12 01:31:35;;;;;;;3.00;2.30;;;19.80;1.00;;;;;;5107676;28;20198;-73
2022/07/12 01:34:04;;;;;;;3.00;2.17;;;19.40;1.00;;;;;;5109616;28;20240;-73
2022/07/12 01:36:30;;;;;;;3.23;2.60;;;21.40;1.00;;;;;;5108115;28;20914;-74
2022/07/12 01:38:56;;;;;;;3.00;2.30;;;19.30;1.00;;;;;;5108945;28;20416;-75
2022/07/12 01:41:23;;;;;;;3.20;2.33;;;19.30;1.00;;;;;;5108469;28;20231;-75
2022/07/12 01:43:52;;;;;;;2.87;2.43;;;19.20;1.00;;;;;;5090494;28;20171;-74
2022/07/12 01:46:18;;;;;;;3.87;2.70;;;19.20;1.00;;;;;;5108325;28;20411;-75
2022/07/12 01:48:44;;;;;;;2.70;2.30;;;19.20;1.00;;;;;;5108512;28;20823;-73
2022/07/12 01:51:09;;;;;;;4.00;2.47;;;19.00;1.00;;;;;;5107720;28;20266;-74
2022/07/12 01:53:36;;;;;;;3.60;2.40;;;18.90;1.00;;;;;;5108608;28;21076;-74
2022/07/12 01:56:05;;;;;;;4.13;2.83;;;18.80;1.00;;;;;;5108621;28;20169;-74
2022/07/12 01:58:31;;;;;;;6.30;2.40;;;18.70;1.00;;;;;;5108961;28;20425;-73
2022/07/12 02:00:57;;;;;;;3.80;2.30;;;18.70;1.00;;;;;;5108345;28;20481;-74
2022/07/12 02:03:23;;;;;;;2.90;2.60;;;18.60;1.00;;;;;;5107782;28;20258;-74
2022/07/12 02:05:49;;;;;;;2.83;2.27;;;;;;;;;;5108645;28;20508;-74
2022/07/12 02:08:15;;;;;;;2.97;2.30;;;18.50;1.00;;;;;;5107908;28;20557;-74
2022/07/12 02:10:41;;;;;;;4.57;2.80;;;18.30;1.00;;;;;;5108950;28;20404;-74
2022/07/12 02:13:07;;;;;;;2.70;2.33;;;18.40;1.00;;;;;;5107945;28;20189;-74
2022/07/12 02:15:33;;;;;;;2.60;2.20;;;18.50;1.00;;;;;;5108803;28;20401;-74
2022/07/12 02:17:58;;;;;;;4.03;2.47;;;18.50;1.00;;;;;;5107739;28;20278;-73
2022/07/12 02:20:24;;;;;;;3.97;2.40;;;18.30;1.00;;;;;;5108933;28;20198;-74
2022/07/12 02:22:50;;;;;;;3.20;2.60;;;18.20;1.00;;;;;;5088165;28;20175;-74
2022/07/12 02:25:16;;;;;;;3.83;2.70;;;18.20;1.00;;;;;;5090564;28;20285;-74
2022/07/12 02:27:41;;;;;;;4.40;2.70;;;18.10;1.00;;;;;;5108240;28;20301;-74
2022/07/12 02:30:09;;;;;;;3.10;2.60;;;18.00;1.00;;;;;;5108991;28;20223;-74
2022/07/12 02:32:34;;;;;;;2.77;2.37;;;17.90;1.00;;;;;;5106543;28;20170;-75
2022/07/12 02:35:00;;;;;;;3.50;2.63;;;17.90;1.00;;;;;;5107435;28;20483;-73
2022/07/12 02:37:25;;;;;;;3.00;2.50;;;17.80;1.00;;;;;;5105846;28;20191;-73
2022/07/12 02:39:51;;;;;;;3.07;2.77;;;17.70;1.00;;;;;;5112403;28;20537;-74
2022/07/12 02:42:17;;;;;;;5.47;2.53;;;17.60;1.00;;;;;;5111374;28;20194;-73
2022/07/12 02:44:42;;;;;;;4.33;2.53;;;17.50;1.00;;;;;;5112980;28;20174;-74
2022/07/12 02:47:08;;;;;;;2.93;2.63;;;17.40;1.00;;;;;;5111342;28;20191;-74
2022/07/12 02:49:33;;;;;;;2.97;2.60;;;17.40;1.00;;;;;;5093330;28;20301;-74
2022/07/12 02:51:59;;;;;;;2.70;2.30;;;17.40;1.00;;;;;;5110436;28;20159;-74
2022/07/12 02:54:25;;;;;;;3.23;2.43;;;;;;;;;;5111843;28;20174;-74
2022/07/12 02:56:50;;;;;;;4.50;2.40;;;17.40;1.00;;;;;;5111831;28;20572;-74
2022/07/12 02:59:16;;;;;;;3.93;2.57;;;17.40;1.00;;;;;;5093962;28;20266;-74
2022/07/12 03:01:41;;;;;;;4.03;2.30;;;17.20;1.00;;;;;;5110090;28;20182;-74
2022/07/12 03:04:07;;;;;;;3.47;2.67;;;17.10;1.00;;;;;;5093060;28;20549;-74
2022/07/12 03:06:33;;;;;;;3.60;2.47;;;17.00;1.00;;;;;;5107775;28;20223;-74
2022/07/12 03:08:58;;;;;;;3.93;2.50;;;17.00;1.00;;;;;;5110837;28;20277;-73
2022/07/12 03:11:24;;;;;;;2.53;2.33;;;16.90;1.00;;;;;;5111031;28;20528;-74
2022/07/12 03:13:49;;;;;;;4.00;2.40;;;16.80;1.00;;;;;;5093383;28;20171;-74
2022/07/12 03:16:15;;;;;;;3.60;2.47;;;16.90;1.00;;;;;;5108858;28;20171;-74
2022/07/12 03:18:41;;;;;;;2.63;2.33;;;16.90;1.00;;;;;;5091439;28;20348;-74
2022/07/12 03:21:07;;;;;;;2.60;2.40;;;16.80;1.00;;;;;;5110316;28;20201;-73
2022/07/12 03:23:33;;;;;;;3.47;2.30;;;16.60;1.00;;;;;;5110657;28;20783;-74
2022/07/12 03:25:59;;;;;;;2.33;2.13;;;;;;;;;;5111682;28;20401;-74
2022/07/12 03:28:25;;;;;;;3.40;2.70;;;16.80;1.00;;;;;;5111188;28;20203;-74
2022/07/12 03:30:51;;;;;;;2.97;2.67;;;16.80;1.00;;;;;;5092556;28;20171;-74
2022/07/12 03:33:17;;;;;;;2.93;2.63;;;16.70;1.00;;;;;;5110038;28;20929;-73
2022/07/12 03:35:42;;;;;;;2.63;2.40;;;16.70;1.00;;;;;;5111174;28;20193;-74
2022/07/12 03:38:08;;;;;;;2.63;2.20;;;17.60;1.00;;;;;;5109814;28;20195;-74
2022/07/12 03:40:34;;;;;;;3.93;2.50;;;16.60;1.00;;;;;;5111307;28;20168;-74
2022/07/12 03:43:00;;;;;;;2.60;2.40;;;16.60;1.00;;;;;;5110452;28;20167;-74
2022/07/12 03:45:26;;;;;;;6.60;2.50;;;16.60;1.00;;;;;;5111151;28;20496;-74
2022/07/12 03:47:51;;;;;;;2.63;2.33;;;16.60;1.00;;;;;;5109722;28;20912;-73
2022/07/12 03:50:17;;;;;;;3.27;2.67;;;16.50;1.00;;;;;;5111182;28;20677;-74
2022/07/12 03:52:43;;;;;;;4.30;2.50;;;16.40;1.00;;;;;;5090349;28;20173;-73
2022/07/12 03:55:10;;;;;;;5.93;2.50;;;16.30;1.00;;;;;;5111565;28;20198;-74
2022/07/12 03:57:37;;;;;;;3.03;2.73;;;16.20;1.00;;;;;;5108606;28;20447;-74
2022/07/12 04:00:11;;;;;;;3.07;2.50;;;16.10;1.00;;;;;;5111064;28;20526;-74
2022/07/12 04:02:37;;;;;;;3.67;2.30;;;16.20;1.00;;;;;;5109334;28;20882;-74
2022/07/12 04:05:04;;;;;;;3.47;2.67;;;16.10;1.00;;;;;;5111273;28;20904;-74
2022/07/12 04:07:30;;;;;;;4.80;2.90;;;16.20;1.00;;;;;;5109367;28;20425;-74
2022/07/12 04:09:55;;;;;;;2.50;2.30;;;16.20;1.00;;;;;;5110902;28;20455;-74
2022/07/12 04:12:21;;;;;;;5.00;2.60;;;16.20;1.00;;;;;;5109729;28;20578;-74
2022/07/12 04:14:47;;;;;;;3.07;2.77;;;16.20;1.00;;;;;;5110676;28;20163;-74
2022/07/12 04:17:12;;;;;;;3.60;2.57;;;16.20;1.00;;;;;;5109740;28;20179;-74
2022/07/12 04:19:38;;;;;;;2.93;2.33;;;16.20;1.00;;;;;;5110564;28;20613;-74
2022/07/12 04:22:03;;;;;;;2.93;2.63;;;16.30;1.00;;;;;;5109170;28;20175;-74
2022/07/12 04:24:29;;;;;;;2.50;2.30;;;16.30;1.00;;;;;;5091999;28;20625;-74
2022/07/12 04:26:54;;;;;;;4.00;2.60;;;16.30;1.00;;;;;;5091981;28;20250;-74
2022/07/12 04:29:20;;;;;;;3.10;2.50;;;16.40;1.00;;;;;;5109958;28;20708;-75
2022/07/12 04:31:46;;;;;;;3.00;2.70;;;16.40;1.00;;;;;;5108844;28;20183;-73
2022/07/12 04:34:16;;;;;;;3.60;2.67;;;16.30;1.00;;;;;;5110040;28;20408;-74
2022/07/12 04:36:42;;;;;;;3.23;2.70;;;16.40;1.00;;;;;;5090231;28;20199;-74
2022/07/12 04:39:08;;;;;;;4.97;2.93;;;16.40;1.00;;;;;;5109687;28;20462;-74
2022/07/12 04:41:33;;;;;;;7.33;3.20;;;16.50;1.00;;;;;;5109655;28;20202;-74
2022/07/12 04:44:02;;;;;;;3.13;2.83;;;16.50;1.00;;;;;;5091530;28;20170;-74
2022/07/12 04:46:27;;;;;;;3.20;2.70;;;16.50;1.00;;;;;;5087630;28;20199;-74
2022/07/12 04:48:53;;;;;;;3.60;2.90;;;16.60;1.00;;;;;;5106172;28;20465;-74
2022/07/12 04:51:18;;;;;;;5.73;3.23;;;16.60;1.00;;;;;;5108694;28;20171;-74
2022/07/12 04:53:44;;;;;;;4.00;3.30;;;16.60;1.00;;;;;;5109425;28;20250;-74
2022/07/12 04:56:10;;;;;;;5.03;3.60;;;16.60;1.00;;;;;;5109518;28;20228;-75
2022/07/12 04:58:35;;;;;;;9.10;4.07;;;16.60;1.80;;;;;;5090610;28;20629;-73
2022/07/12 05:01:01;;;;;;;3.77;3.37;;;16.60;2.00;;;;;;5109136;28;20190;-73
2022/07/12 05:03:27;;;;;;;5.57;3.60;;;17.60;2.60;;;;;;5108923;28;20494;-72
2022/07/12 05:05:55;;;;;;;5.80;3.23;;;16.80;2.00;;;;;;5109373;28;20198;-73
2022/07/12 05:08:21;;;;;;;3.27;2.97;;;16.90;1.40;;;;;;5108509;28;20669;-74
2022/07/12 05:10:47;;;;;;;4.93;3.43;;;17.10;1.00;;;;;;5109839;28;20404;-73
2022/07/12 05:13:12;;;;;;;5.43;3.57;;;17.20;1.00;;;;;;5090401;28;20586;-74
2022/07/12 05:15:38;;;;;;;4.17;3.77;;;17.30;1.00;;;;;;5091180;28;20163;-74
2022/07/12 05:18:04;;;;;;;4.23;3.60;;;17.40;1.00;;;;;;5108503;28;20195;-74
2022/07/12 05:20:30;;;;;;;4.83;3.67;;;17.50;1.00;;;;;;5109244;28;20171;-74
2022/07/12 05:22:55;;;;;;;4.20;3.50;;;17.50;1.00;;;;;;5107416;28;20475;-74
2022/07/12 05:25:21;;;;;;;4.90;3.13;;;17.70;1.00;;;;;;5091103;28;20163;-74
2022/07/12 05:27:46;;;;;;;4.93;3.80;;;17.80;1.00;;;;;;5108658;28;20779;-74
2022/07/12 05:30:12;;;;;;;7.23;3.87;;;17.80;1.00;;;;;;5109621;28;20596;-74
2022/07/12 05:32:37;;;;;;;4.10;3.30;;;17.90;1.00;;;;;;5107388;28;20253;-74
2022/07/12 05:35:04;;;;;;;8.20;3.77;;;17.90;1.00;;;;;;5091073;28;20207;-74
2022/07/12 05:37:30;;;;;;;6.73;3.50;;;;;;;;;;5089333;28;20289;-74
2022/07/12 05:39:55;;;;;;;5.27;3.90;;;18.10;1.00;;;;;;5090646;28;20870;-73
2022/07/12 05:42:21;;;;;;;4.73;3.53;;;18.20;1.00;;;;;;5107945;28;20236;-74
2022/07/12 05:44:46;;;;;;;4.33;3.63;;;18.30;1.00;;;;;;5108923;28;20205;-74
2022/07/12 05:47:12;;;;;;;4.33;3.10;;;18.40;1.00;;;;;;5108394;28;20699;-74
2022/07/12 05:49:38;;;;;;;3.87;2.97;;;18.40;1.00;;;;;;5108570;28;20199;-75
2022/07/12 05:54:48;;;;;;;4.50;2.80;;;18.70;1.00;;;;;;5108600;28;20755;-74
2022/07/12 05:57:17;;;;;;;5.47;2.93;;;18.80;1.00;;;;;;5106638;28;20515;-74
2022/07/12 05:59:43;;;;;;;5.10;2.90;;;18.90;1.00;;;;;;5108641;28;20275;-74
2022/07/12 06:02:09;;;;;;;4.67;2.70;;;19.00;1.00;;;;;;5107410;28;20442;-74
2022/07/12 06:04:35;;;;;;;3.40;2.80;;;19.10;1.00;;;;;;5108972;28;20163;-74
2022/07/12 06:07:00;;;;;;;5.47;2.80;;;19.40;1.00;;;;;;5107874;28;20190;-74
2022/07/12 06:09:26;;;;;;;3.63;3.07;;;19.30;1.00;;;;;;5108506;28;20614;-74
2022/07/12 06:11:51;;;;;;;4.47;3.30;;;19.30;1.00;;;;;;5112144;28;20171;-74
2022/07/12 06:14:17;;;;;;;4.97;2.60;;;19.50;1.00;;;;;;5114859;28;20232;-74
2022/07/12 06:16:43;;;;;;;4.30;3.00;;;19.60;1.00;;;;;;5113901;28;20272;-74
2022/07/12 06:19:08;;;;;;;3.30;2.60;;;19.70;1.00;;;;;;5094301;28;20409;-74
2022/07/12 06:21:34;;;;;;;3.87;2.50;;;19.80;1.00;;;;;;5112020;28;20652;-73
2022/07/12 06:24:00;;;;;;;3.20;2.50;;;20.00;1.00;;;;;;5112810;28;20171;-74
2022/07/12 06:26:25;;;;;;;3.30;2.50;;;20.20;1.00;;;;;;5094490;28;20186;-74
2022/07/12 06:28:51;;;;;;;2.83;2.17;;;20.20;1.00;;;;;;5094702;28;20206;-74
2022/07/12 06:31:16;;;;;;;3.37;2.30;;;20.30;1.00;;;;;;5092442;28;20894;-75
2022/07/12 06:33:42;;;;;;;4.13;2.60;;;20.60;1.00;;;;;;5112981;28;20208;-74
2022/07/12 06:36:08;;;;;;;2.70;2.20;;;20.50;1.00;;;;;;5093887;28;20564;-75
2022/07/12 06:38:33;;;;;;;3.73;2.20;;;20.60;1.00;;;;;;5111543;28;20178;-75
2022/07/12 06:40:59;;;;;;;4.47;2.70;;;20.70;1.00;;;;;;5094206;28;20187;-76
2022/07/12 06:43:25;;;;;;;5.27;2.70;;;20.80;1.00;;;;;;5093924;28;20175;-75
2022/07/12 06:45:50;;;;;;;6.43;2.90;;;20.60;1.00;;;;;;5094674;28;20182;-75
2022/07/12 06:48:16;;;;;;;4.70;2.23;;;20.70;1.00;;;;;;5111470;28;20460;-74
2022/07/12 06:50:41;;;;;;;3.37;2.73;;;20.80;1.00;;;;;;5112489;28;20171;-75
2022/07/12 06:53:07;;;;;;;6.57;2.70;;;20.90;1.00;;;;;;5092147;28;20323;-74
2022/07/12 06:55:32;;;;;;;4.97;2.53;;;21.10;1.00;;;;;;5094383;28;20576;-75
2022/07/12 06:57:58;;;;;;;17.43;3.57;;;22.20;1.00;;;;;;5093701;28;20190;-75
2022/07/12 07:00:23;;;;;;;6.30;2.90;;;21.20;1.00;;;;;;5112658;28;20228;-75
2022/07/12 07:02:49;;;;;;;2.97;2.13;;;21.30;1.00;;;;;;5110646;28;20479;-74
2022/07/12 07:05:17;;;;;;;6.30;2.20;;;21.50;1.00;;;;;;5112823;28;20166;-75
2022/07/12 07:07:42;;;;;;;5.87;2.20;;;21.60;1.00;;;;;;5110818;28;20193;-75
2022/07/12 07:10:08;;;;;;;3.60;2.27;;;21.80;1.00;;;;;;5112516;28;20460;-74
2022/07/12 07:12:34;;;;;;;3.20;2.00;;;;;;;;;;5092705;28;20660;-75
2022/07/12 07:14:59;;;;;;;24.87;5.80;;;22.00;1.00;;;;;;5112953;28;20216;-75
2022/07/12 07:17:25;;;;;;;5.33;2.13;;;23.60;1.00;;;;;;5111115;28;20621;-76
2022/07/12 07:19:51;;;;;;;3.20;1.93;;;;;;;;;;5093106;28;20170;-74
2022/07/12 07:22:16;;;;;;;3.67;1.80;;;22.60;1.00;;;;;;5109582;28;20261;-75
2022/07/12 07:24:42;;;;;;;3.43;2.20;;;22.60;1.00;;;;;;5094391;28;20583;-74
2022/07/12 07:27:08;;;;;;;3.20;2.00;;;;;;;;;;5093523;28;20190;-75
2022/07/12 07:32:19;;;;;;;2.80;1.70;;;;;;;;;;5104708;28;20426;-76
2022/07/12 07:34:45;;;;;;;3.87;2.57;;;22.80;1.00;;;;;;5112175;28;20472;-75
2022/07/12 07:37:10;;;;;;;4.00;1.57;;;23.00;1.00;;;;;;5110568;28;20439;-76
2022/07/12 07:39:36;;;;;;;2.23;1.70;;;23.10;1.00;;;;;;5112149;28;20536;-75
2022/07/12 07:42:02;;;;;;;2.30;1.50;;;23.60;1.00;;;;;;5111032;28;20198;-75
2022/07/12 07:44:27;;;;;;;3.40;1.67;;;23.60;1.00;;;;;;5111906;28;20206;-75
2022/07/12 07:46:53;;;;;;;2.93;1.80;;;23.70;1.00;;;;;;5111186;28;20719;-75
2022/07/12 07:49:18;;;;;;;2.30;1.50;;;23.70;1.00;;;;;;5110737;28;20430;-75
2022/07/12 07:51:44;;;;;;;2.57;1.60;;;23.80;1.00;;;;;;5091593;28;20605;-75
2022/07/12 07:54:09;;;;;;;4.50;1.80;;;24.20;1.00;;;;;;5111512;28;20167;-75
2022/07/12 07:56:35;;;;;;;2.00;1.40;;;;;;;;;;5109340;28;20223;-75
2022/07/12 07:59:01;;;;;;;2.60;1.60;;;;;;;;;;5111912;28;20168;-75
2022/07/12 08:01:42;;;;;;;2.90;1.60;;;25.10;1.00;;;;;;5110257;28;20167;-75
2022/07/12 08:04:18;;;;;;;4.50;1.70;;;25.60;1.00;;;;;;5110969;28;20258;-75
2022/07/12 08:06:44;;;;;;;2.83;1.73;;;25.70;1.00;;;;;;5091972;28;20947;-75
2022/07/12 08:09:10;;;;;;;2.20;1.50;;;;;;;;;;5111135;28;20977;-75
2022/07/12 08:11:36;;;;;;;3.40;1.80;;;26.00;1.00;;;;;;5092134;28;20400;-75
2022/07/12 08:14:02;;;;;;;3.97;1.70;;;26.10;1.00;;;;;;5092963;28;20880;-75
2022/07/12 08:16:28;;;;;;;2.00;1.30;;;;;;;;;;5110162;28;20653;-75
2022/07/12 08:18:54;;;;;;;3.27;1.77;;;25.70;1.00;;;;;;5110573;28;20397;-75
2022/07/12 08:21:20;;;;;;;2.40;1.30;;;;;;;;;;5110048;28;20692;-75
2022/07/12 08:23:46;;;;;;;3.70;1.60;;;26.10;1.00;;;;;;5110235;28;20174;-76
2022/07/12 08:26:11;;;;;;;2.30;1.50;;;26.00;1.00;;;;;;5110788;28;20411;-75
2022/07/12 08:28:37;;;;;;;3.40;1.37;;;26.10;1.00;;;;;;5110557;28;20270;-75
2022/07/12 08:31:02;;;;;;;2.20;1.53;;;26.60;1.00;;;;;;5109429;28;20250;-78
2022/07/12 08:33:29;;;;;;;3.97;2.20;;;26.90;1.00;;;;;;5090690;28;20182;-75
2022/07/12 08:35:55;;;;;;;2.90;1.60;;;;;;;;;;5103095;28;20169;-75
2022/07/12 08:38:20;;;;;;;2.50;1.60;;;27.10;1.00;;;;;;5109082;28;20444;-75
2022/07/12 08:40:46;;;;;;;2.27;1.57;;;27.30;1.00;;;;;;5110324;28;20190;-76
2022/07/12 08:43:11;;;;;;;2.00;1.40;;;28.20;1.00;;;;;;5090854;28;20261;-74
2022/07/12 08:45:37;;;;;;;2.80;1.60;;;27.80;1.00;;;;;;5110089;28;20162;-75
2022/07/12 08:48:03;;;;;;;2.30;1.60;;;27.70;1.00;;;;;;5090200;28;20579;-75
2022/07/12 08:50:28;;;;;;;2.20;1.50;;;27.50;1.00;;;;;;5109773;28;20163;-76
2022/07/12 08:52:55;;;;;;;4.90;1.60;;;27.60;1.00;;;;;;5107802;28;20170;-74
2022/07/12 08:55:33;;;;;;;2.10;1.40;;;27.60;1.00;;;;;;5110527;28;20692;-75
2022/07/12 08:58:01;;;;;;;2.30;1.40;;;27.90;1.00;;;;;;5110140;28;20228;-76
2022/07/12 09:00:28;;;;;;;4.00;1.50;;;28.30;1.00;;;;;;5109995;28;20257;-76
2022/07/12 09:02:58;;;;;;;2.90;1.47;;;28.50;1.00;;;;;;5108284;28;20191;-74
2022/07/12 09:05:28;;;;;;;3.30;1.43;;;28.80;1.00;;;;;;5110222;28;20541;-75
2022/07/12 09:08:08;;;;;;;2.70;1.40;;;28.50;1.00;;;;;;5108709;28;20183;-76
2022/07/12 09:10:35;;;;;;;3.37;1.43;;;28.90;1.00;;;;;;5091408;28;20166;-75
2022/07/12 09:13:01;;;;;;;2.30;1.70;;;30.20;1.00;;;;;;5090480;28;20194;-75
2022/07/12 09:15:27;;;;;;;2.30;1.47;;;29.60;1.00;;;;;;5109871;28;20182;-75
2022/07/12 09:17:56;;;;;;;2.00;1.50;;;29.80;1.00;;;;;;5090559;28;20233;-75
2022/07/12 09:20:24;;;;;;;2.53;1.30;;;29.90;1.00;;;;;;5092129;28;20736;-75
2022/07/12 09:22:57;;;;;;;2.40;1.30;;;30.00;1.00;;;;;;5108891;28;20633;-75
2022/07/12 09:25:23;;;;;;;4.03;1.60;;;29.60;1.00;;;;;;5092487;28;20181;-75
2022/07/12 09:27:52;;;;;;;2.67;1.40;;;31.20;1.00;;;;;;5091702;28;20679;-77
2022/07/12 09:30:18;;;;;;;2.72;1.48;;;32.90;1.00;;;;;;5110585;28;20217;-76
2022/07/12 09:36:12;;;;;;;4.65;1.45;;;33.90;1.00;;;;;;5104314;28;20713;-77
2022/07/12 09:38:44;;;;;;;1.90;1.20;;;35.00;1.00;;;;;;5109643;28;20234;-75
2022/07/12 09:41:13;;;;;;;1.90;1.30;;;34.60;1.00;;;;;;5109789;28;20167;-76
2022/07/12 09:43:39;;;;;;;2.58;1.42;;;33.10;1.00;;;;;;5110114;28;20167;-75
2022/07/12 09:46:06;;;;;;;4.32;1.60;;;32.90;1.00;;;;;;5109784;28;20158;-76
2022/07/12 09:48:33;;;;;;;1.95;1.25;;;33.80;1.00;;;;;;5109819;28;20210;-76
2022/07/12 09:51:01;;;;;;;2.70;1.50;;;35.00;1.00;;;;;;5109968;28;20167;-76
2022/07/12 09:53:31;;;;;;;2.17;1.48;;;35.90;1.00;;;;;;5109241;28;20198;-76
2022/07/12 09:55:57;;;;;;;1.90;1.20;;;36.80;1.00;;;;;;5109311;28;20725;-77
2022/07/12 09:58:30;;;;;;;2.10;1.35;;;37.20;1.00;;;;;;5091665;28;20194;-78
2022/07/12 10:00:59;;;;;;;2.80;1.30;;;37.60;1.00;;;;;;5110036;28;20178;-76
2022/07/12 10:03:27;;;;;;;1.80;1.15;;;38.10;1.00;;;;;;5109438;28;20652;-76
2022/07/12 10:05:54;;;;;;;2.28;1.27;;;38.60;1.00;;;;;;5109824;28;20177;-79
2022/07/12 10:08:20;;;;;;;2.30;1.60;;;39.30;1.00;;;;;;5109039;28;20745;-76
2022/07/12 10:10:47;;;;;;;2.20;1.40;;;39.80;1.00;;;;;;5110713;28;20174;-76
2022/07/12 10:13:14;;;;;;;3.92;1.20;;;40.00;1.00;;;;;;5109232;28;20220;-77
2022/07/12 10:15:43;;;;;;;1.90;1.10;;;40.00;1.00;;;;;;5110828;28;20261;-78
2022/07/12 10:18:19;;;;;;;2.20;1.30;;;40.30;1.00;;;;;;5109590;28;20186;-77
2022/07/12 10:20:49;;;;;;;2.38;1.27;;;40.60;1.00;;;;;;5110012;28;20159;-77
2022/07/12 10:23:34;;;;;;;2.53;1.30;;;40.90;1.00;;;;;;5108546;28;20186;-77
2022/07/12 10:26:24;;;;;;;1.95;1.27;;;40.40;1.00;;;;;;5110282;28;20159;-76
2022/07/12 10:29:06;;;;;;;2.20;1.35;;;39.60;1.00;;;;;;5091612;28;20197;-77
2022/07/12 10:31:37;;;;;;;3.22;1.27;;;38.30;1.00;;;;;;5090166;28;20163;-76
2022/07/12 10:34:22;;;;;;;2.00;1.20;;;37.80;1.00;;;;;;5109801;28;20167;-76
2022/07/12 10:36:54;;;;;;;2.17;1.33;;;38.70;1.00;;;;;;5101853;28;20209;-77
2022/07/12 10:39:21;;;;;;;2.15;1.10;;;39.80;1.00;;;;;;5109869;28;20179;-77
2022/07/12 10:42:07;;;;;;;3.22;1.15;;;40.10;1.00;;;;;;5108829;28;20178;-77
2022/07/12 10:44:35;;;;;;;3.20;1.30;;;40.40;1.00;;;;;;5090272;28;20244;-78
2022/07/12 10:47:02;;;;;;;2.75;1.40;;;40.40;1.00;;;;;;5078365;28;20187;-77
2022/07/12 10:49:30;;;;;;;1.90;1.20;;;40.30;1.00;;;;;;5109535;28;20296;-77
2022/07/12 10:52:10;;;;;;;1.90;1.10;;;39.40;1.00;;;;;;5089698;28;20171;-77
2022/07/12 10:54:37;;;;;;;2.08;1.30;;;37.80;1.00;;;;;;5108081;28;20239;-77
2022/07/12 10:57:03;;;;;;;2.20;1.40;;;37.20;1.00;;;;;;5111138;28;20218;-77
2022/07/12 10:59:32;;;;;;;2.08;1.27;;;38.00;1.00;;;;;;5114080;28;20206;-76
2022/07/12 11:01:59;;;;;;;3.60;1.30;;;39.20;1.00;;;;;;5112101;28;20617;-78
2022/07/12 11:04:27;;;;;;;2.00;1.33;;;;;;;;;;5094614;28;20178;-77
2022/07/12 11:06:55;;;;;;;2.95;1.40;;;40.80;1.00;;;;;;5112669;28;20187;-77
2022/07/12 11:09:21;;;;;;;2.80;1.40;;;41.60;1.00;;;;;;5094494;28;20198;-78
2022/07/12 11:11:49;;;;;;;2.88;1.27;;;41.90;1.00;;;;;;5112374;28;20571;-77
2022/07/12 11:14:23;;;;;;;2.15;1.10;;;42.00;1.00;;;;;;5113512;28;20182;-77
2022/07/12 11:16:51;;;;;;;1.98;1.20;;;40.50;1.00;;;;;;5112566;28;20280;-77
2022/07/12 11:19:21;;;;;;;3.45;1.30;;;40.50;1.00;;;;;;5110145;28;20253;-77
2022/07/12 11:21:54;;;;;;;1.90;1.20;;;40.50;1.00;;;;;;5111029;28;20214;-76
2022/07/12 11:24:38;;;;;;;1.90;1.10;;;40.90;1.00;;;;;;5094789;28;20174;-77
2022/07/12 11:27:05;;;;;;;3.45;1.20;;;41.50;1.00;;;;;;5112771;28;20190;-76
2022/07/12 11:29:32;;;;;;;3.15;1.30;;;42.30;1.00;;;;;;5113093;28;20285;-77
2022/07/12 11:32:04;;;;;;;2.22;1.20;;;42.80;1.00;;;;;;5111387;28;20204;-76
2022/07/12 11:34:29;;;;;;;2.50;1.30;;;43.10;1.00;;;;;;5094059;28;20525;-76
2022/07/12 11:37:01;;;;;;;2.00;1.20;;;43.50;1.00;;;;;;5112362;28;20187;-76
2022/07/12 11:39:32;;;;;;;2.85;1.20;;;43.60;1.00;;;;;;5112734;28;20425;-77
2022/07/12 11:41:59;;;;;;;2.78;1.10;;;44.20;1.00;;;;;;5111836;28;20269;-76
2022/07/12 11:44:44;;;;;;;2.00;1.17;;;44.60;1.00;;;;;;5094537;28;20480;-76
2022/07/12 11:47:10;;;;;;;2.00;1.25;;;44.70;1.00;;;;;;5093631;28;20194;-76
2022/07/12 11:49:36;;;;;;;1.70;0.95;;;44.00;1.00;;;;;;5112399;28;20228;-76
2022/07/12 11:52:05;;;;;;;1.90;1.23;;;43.60;1.00;;;;;;5110801;28;20167;-76
2022/07/12 11:54:30;;;;;;;1.67;1.00;;;43.50;1.00;;;;;;5112138;28;20170;-76
2022/07/12 11:57:10;;;;;;;1.90;1.08;;;44.20;1.00;;;;;;5111279;28;20186;-77
2022/07/12 11:59:35;;;;;;;4.72;1.25;;;44.00;1.00;;;;;;5111586;28;20533;-76
2022/07/12 12:02:07;;;;;;;1.88;1.13;;;44.10;1.00;;;;;;5110968;28;20437;-76
2022/07/12 12:04:49;;;;;;;2.20;1.20;;;44.70;1.00;;;;;;5112125;28;20534;-77
2022/07/12 12:07:16;;;;;;;4.82;1.33;;;45.00;1.00;;;;;;5111016;28;20190;-76
2022/07/12 12:10:06;;;;;;;2.47;1.30;;;45.40;1.00;;;;;;5093728;28;20660;-76
2022/07/12 12:12:42;;;;;;;2.30;1.20;;;45.80;1.00;;;;;;5092398;28;20609;-77
2022/07/12 12:15:12;;;;;;;1.90;1.20;;;45.90;1.00;;;;;;5112186;28;20201;-77
2022/07/12 12:18:02;;;;;;;3.45;1.23;;;45.00;1.00;;;;;;5092420;28;20208;-76
2022/07/12 12:20:30;;;;;;;2.00;1.10;;;45.20;1.00;;;;;;5112084;28;20205;-77
2022/07/12 12:23:00;;;;;;;2.50;1.10;;;45.10;1.00;;;;;;5091501;28;20170;-76
2022/07/12 12:25:28;;;;;;;2.10;1.20;;;45.40;1.00;;;;;;5112139;28;20690;-77
2022/07/12 12:27:55;;;;;;;1.90;1.02;;;45.30;1.00;;;;;;5111575;28;20484;-77
2022/07/12 12:30:20;;;;;;;3.30;1.20;;;44.50;1.00;;;;;;5111186;28;20210;-76
2022/07/12 12:32:47;;;;;;;2.72;1.30;;;44.20;1.00;;;;;;5109167;28;20178;-77
2022/07/12 12:35:15;;;;;;;2.08;1.13;;;44.20;1.00;;;;;;5093151;28;20474;-76
2022/07/12 12:37:48;;;;;;;1.85;1.23;;;44.20;1.00;;;;;;5109246;28;20319;-76
2022/07/12 12:40:21;;;;;;;11.95;2.33;;;43.70;1.00;;;;;;5093178;28;20170;-76
2022/07/12 12:42:47;;;;;;;1.80;1.13;;;44.00;1.00;;;;;;5091987;28;20178;-76
2022/07/12 12:45:25;;;;;;;2.00;1.20;;;44.50;1.00;;;;;;5111074;28;20171;-77
2022/07/12 12:47:59;;;;;;;2.33;1.30;;;44.60;1.00;;;;;;5109261;28;20232;-77
2022/07/12 12:50:45;;;;;;;2.42;1.30;;;43.60;1.00;;;;;;5111262;28;20217;-76
2022/07/12 12:53:14;;;;;;;2.33;1.33;;;43.40;1.00;;;;;;5105277;28;20759;-76
2022/07/12 12:55:41;;;;;;;3.50;1.30;;;43.80;1.00;;;;;;5089736;28;20545;-76
2022/07/12 12:58:07;;;;;;;8.35;1.80;;;43.70;1.00;;;;;;5091828;28;20199;-76
2022/07/12 13:00:37;;;;;;;1.70;1.10;;;44.00;1.00;;;;;;5110612;28;20174;-77
2022/07/12 13:03:03;;;;;;;1.90;1.20;;;44.30;1.00;;;;;;5088509;28;20246;-76
2022/07/12 13:05:28;;;;;;;2.55;1.20;;;45.20;1.00;;;;;;5072133;28;20685;-75
2022/07/12 13:07:54;;;;;;;2.58;1.10;;;45.00;1.00;;;;;;5088903;28;20199;-76
2022/07/12 13:10:20;;;;;;;2.42;1.00;;;45.10;1.00;;;;;;5089887;28;20226;-76
2022/07/12 13:12:46;;;;;;;4.43;1.30;;;45.10;1.00;;;;;;5075350;28;20198;-77